createdAt,value
2018-11-20T00:01:33.480Z,11.50
2018-11-20T00:04:39.348Z,11.18
2018-11-20T00:07:36.021Z,11.55
2018-11-20T00:10:22.160Z,11.53
2018-11-20T00:13:06.756Z,12.18
2018-11-20T00:15:53.193Z,11.50
2018-11-20T00:18:49.927Z,10.40
2018-11-20T00:21:46.376Z,10.82
2018-11-20T00:24:34.027Z,12.75
2018-11-20T00:27:21.636Z,11.10
2018-11-20T00:30:12.241Z,10.55
2018-11-20T00:32:56.919Z,10.25
2018-11-20T00:35:47.553Z,11.93
2018-11-20T00:38:33.851Z,10.08
2018-11-20T00:41:21.481Z,10.80
2018-11-20T00:44:03.071Z,10.65
2018-11-20T00:46:50.679Z,10.43
2018-11-20T00:49:41.225Z,10.88
2018-11-20T00:52:27.619Z,10.60
2018-11-20T00:55:30.461Z,11.57
2018-11-20T00:58:20.629Z,10.28
2018-11-20T01:00:56.622Z,9.25
2018-11-20T01:03:44.200Z,8.93
2018-11-20T01:06:34.207Z,9.90
2018-11-20T01:09:20.483Z,9.10
2018-11-20T01:12:02.718Z,10.35
2018-11-20T01:15:00.737Z,10.40
2018-11-20T01:17:50.990Z,10.88
2018-11-20T01:20:37.081Z,9.78
2018-11-20T01:23:15.250Z,9.55
2018-11-20T01:26:08.846Z,10.38
2018-11-20T01:28:46.443Z,10.10
2018-11-20T01:31:26.329Z,11.22
2018-11-20T01:34:17.408Z,11.15
2018-11-20T01:37:10.735Z,10.72
2018-11-20T01:40:00.975Z,10.45
2018-11-20T01:43:06.892Z,10.82
2018-11-20T01:45:53.345Z,10.58
2018-11-20T01:48:39.798Z,9.53
2018-11-20T01:51:26.177Z,9.83
2018-11-20T01:54:19.710Z,9.63
2018-11-20T01:56:54.259Z,9.33
2018-11-20T01:59:44.464Z,9.43
2018-11-20T02:02:47.372Z,9.88
2018-11-20T02:05:44.115Z,9.70
2018-11-20T02:08:41.730Z,8.78
2018-11-20T02:11:27.281Z,8.90
2018-11-20T02:14:30.860Z,9.50
2018-11-20T02:17:26.908Z,10.13
2018-11-20T02:20:17.382Z,9.90
2018-11-20T02:23:23.382Z,9.20
2018-11-20T02:26:02.928Z,8.40
2018-11-20T02:28:53.197Z,8.93
2018-11-20T02:31:40.726Z,9.23
2018-11-20T02:34:22.993Z,7.92
2018-11-20T02:37:25.812Z,9.13
2018-11-20T02:40:13.514Z,9.60
2018-11-20T02:42:59.565Z,9.40
2018-11-20T02:45:50.050Z,7.92
2018-11-20T02:48:29.203Z,8.88
2018-11-20T02:51:19.534Z,8.58
2018-11-20T02:54:13.076Z,8.28
2018-11-20T02:57:09.605Z,8.30
2018-11-20T02:59:56.013Z,8.23
2018-11-20T03:02:42.153Z,8.28
2018-11-20T03:05:29.719Z,8.45
2018-11-20T03:08:24.323Z,8.28
2018-11-20T03:11:09.155Z,7.97
2018-11-20T03:14:08.970Z,8.08
2018-11-20T03:17:14.667Z,7.85
2018-11-20T03:20:05.188Z,8.05
2018-11-20T03:22:51.390Z,7.75
2018-11-20T03:25:58.305Z,8.33
2018-11-20T03:28:47.982Z,8.15
2018-11-20T03:31:38.492Z,7.75
2018-11-20T03:34:24.644Z,7.50
2018-11-20T03:37:27.607Z,8.15
2018-11-20T03:40:27.243Z,7.10
2018-11-20T03:43:14.884Z,8.00
2018-11-20T03:46:09.619Z,7.95
2018-11-20T03:48:56.261Z,7.85
2018-11-20T03:51:37.407Z,7.10
2018-11-20T03:54:18.886Z,8.30
2018-11-20T03:57:09.099Z,7.70
2018-11-20T03:59:59.413Z,7.67
2018-11-20T04:02:47.582Z,7.17
2018-11-20T04:05:34.197Z,6.70
2018-11-20T04:08:20.565Z,8.00
2018-11-20T04:11:23.005Z,7.03
2018-11-20T04:14:11.389Z,7.25
2018-11-20T04:16:57.532Z,6.33
2018-11-20T04:19:45.125Z,7.25
2018-11-20T04:22:32.783Z,7.65
2018-11-20T04:25:38.682Z,6.95
2018-11-20T04:28:32.075Z,7.28
2018-11-20T04:31:45.960Z,7.00
2018-11-20T04:34:36.491Z,6.45
2018-11-20T04:37:32.927Z,7.20
2018-11-20T04:40:19.164Z,6.80
2018-11-20T04:43:09.939Z,6.83
2018-11-20T04:45:57.584Z,6.45
2018-11-20T04:48:48.131Z,6.50
2018-11-20T04:51:35.757Z,5.33
2018-11-20T04:54:32.602Z,6.05
2018-11-20T04:57:26.273Z,5.45
2018-11-20T05:00:19.529Z,5.35
2018-11-20T05:03:22.188Z,6.03
2018-11-20T05:06:21.993Z,5.47
2018-11-20T05:09:09.638Z,4.78
2018-11-20T05:12:06.453Z,5.00
2018-11-20T05:14:56.918Z,6.15
2018-11-20T05:17:43.396Z,5.25
2018-11-20T05:20:29.814Z,4.95
2018-11-20T05:23:16.163Z,5.80
2018-11-20T05:25:56.545Z,5.42
2018-11-20T05:28:43.077Z,5.10
2018-11-20T05:31:29.504Z,5.25
2018-11-20T05:34:32.096Z,6.10
2018-11-20T05:37:14.046Z,5.45
2018-11-20T05:40:04.332Z,6.10
2018-11-20T05:42:42.749Z,5.00
2018-11-20T05:45:33.235Z,5.55
2018-11-20T05:48:19.392Z,5.70
2018-11-20T05:51:09.797Z,6.22
2018-11-20T05:54:00.477Z,5.97
2018-11-20T05:56:54.872Z,6.20
2018-11-20T06:00:00.870Z,6.20
2018-11-20T06:02:47.102Z,5.60
2018-11-20T06:05:38.511Z,5.97
2018-11-20T06:08:19.081Z,5.58
2018-11-20T06:11:02.575Z,5.87
2018-11-20T06:13:49.004Z,5.83
2018-11-20T06:16:39.704Z,7.10
2018-11-20T06:19:26.251Z,5.65
2018-11-20T06:22:25.969Z,7.08
2018-11-20T06:25:19.651Z,7.12
2018-11-20T06:28:15.823Z,6.10
2018-11-20T06:31:03.178Z,5.35
2018-11-20T06:33:49.557Z,6.90
2018-11-20T06:36:49.297Z,5.40
2018-11-20T06:39:36.922Z,5.90
2018-11-20T06:42:23.616Z,5.95
2018-11-20T06:45:10.084Z,6.37
2018-11-20T06:48:12.919Z,5.60
2018-11-20T06:51:03.128Z,5.30
2018-11-20T06:53:50.765Z,6.85
2018-11-20T06:56:36.845Z,6.80
2018-11-20T06:59:23.286Z,7.10
2018-11-20T07:02:09.445Z,7.72
2018-11-20T07:04:55.930Z,7.45
2018-11-20T07:07:42.405Z,6.00
2018-11-20T07:10:28.865Z,6.85
2018-11-20T07:13:29.804Z,7.75
2018-11-20T07:17:07.744Z,7.62
2018-11-20T07:20:11.957Z,6.25
2018-11-20T07:23:05.557Z,6.33
2018-11-20T07:25:52.042Z,7.53
2018-11-20T07:28:37.578Z,7.12
2018-11-20T07:31:31.535Z,7.00
2018-11-20T07:34:28.608Z,7.05
2018-11-20T07:37:14.895Z,6.83
2018-11-20T07:40:04.381Z,7.37
2018-11-20T07:42:57.074Z,7.42
2018-11-20T07:45:47.794Z,6.60
2018-11-20T07:48:35.494Z,6.83
2018-11-20T07:51:21.855Z,7.30
2018-11-20T07:54:09.419Z,7.10
2018-11-20T07:57:15.268Z,6.83
2018-11-20T08:00:14.772Z,6.35
2018-11-20T08:03:05.015Z,7.17
2018-11-20T08:05:50.754Z,7.15
2018-11-20T08:08:37.257Z,7.65
2018-11-20T08:11:43.120Z,6.70
2018-11-20T08:14:29.420Z,7.55
2018-11-20T08:17:32.146Z,7.62
2018-11-20T08:20:31.767Z,7.58
2018-11-20T08:23:17.913Z,7.22
2018-11-20T08:26:11.685Z,7.53
2018-11-20T08:29:05.091Z,6.85
2018-11-20T08:31:58.600Z,7.10
2018-11-20T08:34:55.119Z,6.80
2018-11-20T08:37:58.050Z,5.50
2018-11-20T08:41:03.768Z,8.28
2018-11-20T08:44:09.677Z,6.62
2018-11-20T08:47:07.413Z,6.67
2018-11-20T08:50:03.795Z,6.33
2018-11-20T08:52:52.912Z,7.08
2018-11-20T08:55:55.555Z,6.10
2018-11-20T08:58:52.385Z,6.50
2018-11-20T09:01:49.215Z,5.50
2018-11-20T09:04:55.096Z,6.08
2018-11-20T09:07:48.631Z,6.60
2018-11-20T09:10:30.122Z,6.15
2018-11-20T09:13:16.418Z,6.78
2018-11-20T09:16:42.576Z,6.33
2018-11-20T09:19:30.794Z,5.53
2018-11-20T09:22:26.454Z,6.08
2018-11-20T09:25:11.893Z,5.37
2018-11-20T09:27:58.741Z,5.67
2018-11-20T09:30:54.743Z,5.30
2018-11-20T09:33:44.188Z,5.20
2018-11-20T09:36:43.095Z,5.60
2018-11-20T09:39:48.193Z,5.80
2018-11-20T09:42:38.008Z,5.58
2018-11-20T09:46:14.463Z,5.70
2018-11-20T09:48:59.874Z,5.87
2018-11-20T09:51:58.565Z,5.45
2018-11-20T09:55:03.736Z,6.15
2018-11-20T09:57:49.429Z,6.28
2018-11-20T10:00:37.351Z,5.78
2018-11-20T10:03:13.899Z,5.95
2018-11-20T10:06:07.749Z,6.45
2018-11-20T10:09:03.410Z,4.95
2018-11-20T10:12:02.382Z,5.80
2018-11-20T10:14:58.354Z,5.45
2018-11-20T10:17:43.844Z,5.95
2018-11-20T10:20:29.411Z,6.00
2018-11-20T10:23:31.140Z,5.47
2018-11-20T10:26:17.921Z,6.40
2018-11-20T10:29:13.633Z,5.90
2018-11-20T10:32:01.143Z,5.10
2018-11-20T10:34:53.812Z,5.22
2018-11-20T10:37:37.158Z,5.67
2018-11-20T10:40:25.135Z,5.85
2018-11-20T10:43:10.455Z,5.40
2018-11-20T10:45:51.782Z,5.12
2018-11-20T10:48:47.835Z,4.75
2018-11-20T10:51:28.226Z,5.17
2018-11-20T10:54:27.026Z,5.17
2018-11-20T10:57:13.798Z,5.10
2018-11-20T11:00:04.429Z,4.87
2018-11-20T11:02:49.694Z,5.28
2018-11-20T11:05:46.861Z,4.70
2018-11-20T11:08:32.116Z,4.72
2018-11-20T11:11:07.013Z,5.15
2018-11-20T11:14:06.351Z,4.75
2018-11-20T11:16:51.929Z,5.30
2018-11-20T11:19:41.553Z,4.62
2018-11-20T11:22:27.441Z,5.12
2018-11-20T11:25:14.238Z,5.25
2018-11-20T11:28:16.245Z,4.70
2018-11-20T11:30:55.606Z,4.58
2018-11-20T11:33:37.221Z,4.85
2018-11-20T11:36:36.120Z,4.42
2018-11-20T11:39:32.475Z,4.08
2018-11-20T11:42:19.273Z,4.90
2018-11-20T11:45:03.509Z,5.30
2018-11-20T11:47:47.946Z,4.15
2018-11-20T11:50:43.648Z,5.05
2018-11-20T11:53:20.856Z,4.80
2018-11-20T11:56:06.342Z,5.50
2018-11-20T11:58:53.099Z,5.25
2018-11-20T12:04:14.008Z,5.45
2018-11-20T12:07:00.832Z,5.22
2018-11-20T12:09:38.563Z,4.80
2018-11-20T12:12:23.948Z,5.35
2018-11-20T12:15:16.335Z,5.30
2018-11-20T12:18:11.765Z,5.95
2018-11-20T12:20:57.358Z,4.87
2018-11-20T12:23:59.081Z,5.08
2018-11-20T12:26:52.009Z,5.03
2018-11-20T12:29:55.515Z,5.35
2018-11-20T12:32:55.791Z,5.00
2018-11-20T12:35:38.453Z,5.12
2018-11-20T12:38:28.643Z,5.20
2018-11-20T12:41:14.173Z,5.65
2018-11-20T12:43:59.666Z,5.33
2018-11-20T12:46:45.052Z,5.87
2018-11-20T12:49:32.154Z,5.40
2018-11-20T12:52:18.384Z,5.15
2018-11-20T12:55:07.766Z,4.92
2018-11-20T12:57:56.676Z,5.10
2018-11-20T13:00:44.227Z,5.17
2018-11-20T13:03:43.116Z,5.60
2018-11-20T13:06:32.552Z,4.50
2018-11-20T13:09:16.459Z,4.60
2018-11-20T13:12:05.811Z,5.37
2018-11-20T13:14:46.084Z,4.80
2018-11-20T13:17:33.653Z,4.47
2018-11-20T13:20:22.626Z,4.10
2018-11-20T13:23:17.993Z,4.85
2018-11-20T13:26:02.343Z,4.80
2018-11-20T13:29:04.058Z,4.40
2018-11-20T13:31:51.621Z,4.72
2018-11-20T13:34:37.884Z,5.15
2018-11-20T13:37:32.025Z,5.12
2018-11-20T13:40:19.696Z,4.12
2018-11-20T13:43:12.754Z,4.60
2018-11-20T13:46:05.570Z,4.37
2018-11-20T13:48:51.954Z,5.10
2018-11-20T13:51:42.615Z,3.75
2018-11-20T13:54:38.350Z,4.30
2018-11-20T13:57:27.945Z,3.77
2018-11-20T14:00:20.877Z,4.40
2018-11-20T14:03:06.474Z,4.20
2018-11-20T14:05:51.767Z,4.00
2018-11-20T14:08:28.584Z,4.70
2018-11-20T14:11:14.958Z,4.07
2018-11-20T14:14:08.489Z,4.55
2018-11-20T14:17:10.561Z,4.03
2018-11-20T14:19:53.771Z,4.20
2018-11-20T14:22:49.539Z,3.72
2018-11-20T14:25:39.936Z,3.93
2018-11-20T14:28:35.101Z,3.90
2018-11-20T14:31:16.044Z,3.33
2018-11-20T14:34:20.835Z,3.90
2018-11-20T14:37:22.901Z,3.30
2018-11-20T14:40:00.876Z,3.67
2018-11-20T14:42:51.676Z,3.77
2018-11-20T14:45:27.951Z,3.40
2018-11-20T14:48:33.086Z,3.40
2018-11-20T14:51:15.095Z,4.37
2018-11-20T14:54:06.571Z,4.47
2018-11-20T14:56:54.761Z,4.28
2018-11-20T14:59:50.628Z,4.60
2018-11-20T15:02:46.376Z,5.10
2018-11-20T15:05:44.149Z,4.75
2018-11-20T15:08:36.925Z,5.00
2018-11-20T15:11:30.346Z,4.85
2018-11-20T15:14:19.960Z,5.45
2018-11-20T15:17:06.718Z,5.00
2018-11-20T15:19:52.397Z,4.47
2018-11-20T15:22:54.150Z,4.83
2018-11-20T15:25:41.550Z,4.30
2018-11-20T15:28:26.807Z,4.40
2018-11-20T15:31:12.145Z,4.20
2018-11-20T15:33:49.959Z,4.33
2018-11-20T15:36:35.609Z,4.28
2018-11-20T15:39:13.452Z,3.95
2018-11-20T15:41:55.550Z,4.20
2018-11-20T15:44:41.277Z,4.70
2018-11-20T15:47:33.000Z,4.40
2018-11-20T15:50:18.523Z,4.90
2018-11-20T15:53:08.306Z,4.80
2018-11-20T15:55:54.153Z,4.70
2018-11-20T15:58:39.289Z,4.70
2018-11-20T16:01:24.592Z,5.10
2018-11-20T16:04:09.347Z,4.55
2018-11-20T16:06:45.257Z,4.90
2018-11-20T16:09:30.711Z,4.85
2018-11-20T16:12:16.128Z,4.87
2018-11-20T16:15:02.924Z,4.65
2018-11-20T16:17:52.655Z,4.60
2018-11-20T16:20:38.419Z,4.40
2018-11-20T16:23:16.821Z,4.90
2018-11-20T16:26:15.767Z,4.67
2018-11-20T16:29:11.338Z,5.55
2018-11-20T16:31:56.562Z,5.15
2018-11-20T16:34:52.298Z,4.42
2018-11-20T16:37:37.934Z,5.28
2018-11-20T16:40:31.863Z,5.10
2018-11-20T16:43:30.191Z,4.67
2018-11-20T16:46:35.156Z,5.42
2018-11-20T16:49:24.563Z,4.53
2018-11-20T16:52:10.249Z,4.50
2018-11-20T16:54:55.566Z,6.20
2018-11-20T16:57:42.332Z,5.35
2018-11-20T17:00:29.173Z,5.40
2018-11-20T17:03:14.666Z,5.70
2018-11-20T17:06:04.039Z,6.25
2018-11-20T17:08:49.740Z,5.72
2018-11-20T17:11:35.234Z,5.75
2018-11-20T17:14:24.615Z,5.22
2018-11-20T17:17:10.296Z,6.00
2018-11-20T17:20:09.034Z,6.50
2018-11-20T17:22:54.611Z,6.70
2018-11-20T17:25:41.418Z,6.28
2018-11-20T17:28:46.189Z,6.70
2018-11-20T17:31:47.947Z,7.62
2018-11-20T17:34:50.049Z,9.03
2018-11-20T17:37:39.665Z,9.65
2018-11-20T17:40:26.556Z,10.38
2018-11-20T17:43:11.516Z,10.88
2018-11-20T17:45:57.055Z,11.08
2018-11-20T17:48:49.546Z,9.13
2018-11-20T17:51:38.982Z,11.88
2018-11-20T17:54:29.437Z,11.95
2018-11-20T17:57:20.333Z,12.18
2018-11-20T18:00:11.590Z,9.68
2018-11-20T18:02:58.598Z,8.38
2018-11-20T18:05:42.463Z,8.00
2018-11-20T18:08:28.273Z,7.70
2018-11-20T18:11:16.838Z,8.60
2018-11-20T18:14:13.840Z,7.75
2018-11-20T18:17:08.466Z,8.18
2018-11-20T18:20:09.284Z,8.88
2018-11-20T18:23:05.145Z,10.28
2018-11-20T18:25:51.983Z,8.25
2018-11-20T18:28:37.259Z,7.25
2018-11-20T18:31:41.718Z,8.50
2018-11-20T18:34:26.347Z,7.95
2018-11-20T18:37:11.658Z,8.50
2018-11-20T18:40:01.285Z,8.50
2018-11-20T18:42:49.523Z,8.43
2018-11-20T18:45:34.782Z,8.73
2018-11-20T18:48:21.761Z,8.03
2018-11-20T18:51:22.104Z,6.95
2018-11-20T18:54:25.975Z,6.80
2018-11-20T18:57:05.163Z,6.28
2018-11-20T18:59:55.270Z,6.12
2018-11-20T19:02:45.173Z,6.22
2018-11-20T19:05:43.786Z,5.65
2018-11-20T19:08:29.231Z,6.28
2018-11-20T19:11:16.155Z,5.72
2018-11-20T19:14:01.690Z,7.08
2018-11-20T19:16:47.027Z,7.00
2018-11-20T19:19:48.745Z,7.20
2018-11-20T19:22:27.699Z,7.65
2018-11-20T19:25:35.224Z,7.97
2018-11-20T19:28:20.784Z,8.33
2018-11-20T19:31:08.970Z,8.55
2018-11-20T19:33:55.850Z,7.80
2018-11-20T19:36:51.811Z,8.10
2018-11-20T19:39:40.246Z,8.28
2018-11-20T19:42:35.944Z,7.67
2018-11-20T19:45:37.674Z,8.13
2018-11-20T19:48:33.965Z,7.42
2018-11-20T19:51:29.546Z,7.70
2018-11-20T19:54:19.423Z,8.00
2018-11-20T19:57:15.196Z,8.38
2018-11-20T20:00:02.010Z,9.03
2018-11-20T20:02:47.568Z,7.95
2018-11-20T20:05:33.082Z,7.92
2018-11-20T20:08:21.218Z,8.08
2018-11-20T20:11:08.020Z,6.47
2018-11-20T20:13:57.741Z,8.58
2018-11-20T20:16:43.164Z,7.60
2018-11-20T20:19:28.495Z,7.75
2018-11-20T20:22:14.624Z,7.92
2018-11-20T20:24:53.387Z,8.28
2018-11-20T20:27:44.410Z,8.95
2018-11-20T20:30:30.214Z,8.33
2018-11-20T20:33:18.711Z,8.95
2018-11-20T20:36:20.611Z,8.73
2018-11-20T20:39:25.695Z,8.83
2018-11-20T20:42:24.879Z,8.40
2018-11-20T20:45:09.947Z,8.00
2018-11-20T20:48:02.398Z,7.58
2018-11-20T20:50:46.048Z,7.92
2018-11-20T20:53:50.988Z,8.03
2018-11-20T20:56:30.101Z,7.45
2018-11-20T20:59:22.450Z,7.42
2018-11-20T21:02:09.260Z,6.70
2018-11-20T21:04:56.500Z,6.67
2018-11-20T21:07:43.265Z,7.12
2018-11-20T21:10:40.760Z,7.45
2018-11-20T21:13:26.487Z,6.75
2018-11-20T21:16:11.982Z,6.85
2018-11-20T21:18:57.224Z,7.67
2018-11-20T21:21:49.769Z,7.75
2018-11-20T21:24:54.603Z,7.40
2018-11-20T21:27:44.352Z,8.00
2018-11-20T21:30:29.335Z,7.85
2018-11-20T21:33:22.007Z,8.05
2018-11-20T21:36:24.071Z,8.55
2018-11-20T21:39:13.824Z,7.95
2018-11-20T21:41:51.611Z,9.05
2018-11-20T21:44:44.050Z,8.75
2018-11-20T21:47:27.356Z,9.00
2018-11-20T21:50:19.764Z,8.85
2018-11-20T21:53:05.019Z,9.25
2018-11-20T21:56:09.880Z,9.15
2018-11-20T21:58:57.076Z,8.60
2018-11-20T22:01:42.436Z,8.80
2018-11-20T22:04:31.831Z,8.73
2018-11-20T22:07:24.531Z,9.48
2018-11-20T22:10:03.516Z,9.20
2018-11-20T22:12:48.844Z,8.70
2018-11-20T22:15:44.511Z,9.50
2018-11-20T22:18:30.216Z,9.70
2018-11-20T22:21:13.840Z,11.15
2018-11-20T22:24:12.448Z,11.05
2018-11-20T22:27:02.185Z,11.25
2018-11-20T22:29:54.647Z,10.85
2018-11-20T22:32:56.625Z,10.98
2018-11-20T22:36:01.516Z,10.90
2018-11-20T22:38:44.737Z,11.03
2018-11-20T22:41:34.218Z,10.13
2018-11-20T22:44:14.127Z,11.90
2018-11-20T22:47:19.046Z,10.88
2018-11-20T22:50:04.557Z,11.35
2018-11-20T22:52:54.110Z,11.38
2018-11-20T22:55:40.141Z,11.60
2018-11-20T22:58:26.992Z,11.85
2018-11-20T23:01:12.951Z,11.78
2018-11-20T23:03:58.753Z,11.85
2018-11-20T23:06:44.645Z,12.10
2018-11-20T23:09:12.154Z,11.30
2018-11-20T23:11:40.122Z,12.30
2018-11-20T23:14:07.354Z,11.78
2018-11-20T23:16:34.682Z,12.18
2018-11-20T23:19:01.966Z,11.60
2018-11-20T23:21:29.679Z,11.33
2018-11-20T23:23:56.940Z,11.28
2018-11-20T23:26:24.244Z,10.28
2018-11-20T23:28:51.531Z,10.93
2018-11-20T23:31:18.906Z,11.60
2018-11-20T23:33:46.302Z,10.55
2018-11-20T23:36:13.591Z,11.15
2018-11-20T23:38:40.926Z,10.20
2018-11-20T23:41:08.303Z,10.60
2018-11-20T23:43:35.627Z,11.12
2018-11-20T23:46:04.653Z,10.70
2018-11-20T23:48:31.918Z,10.85
2018-11-20T23:50:59.232Z,10.20
2018-11-20T23:53:26.554Z,11.00
2018-11-20T23:55:55.872Z,9.73
2018-11-20T23:58:23.116Z,11.20
